createdAt,value
2022-10-20T00:00:12.435Z,97430.00
2022-10-20T00:05:13.306Z,97423.00
2022-10-20T00:10:14.185Z,97408.00
2022-10-20T00:15:15.029Z,97418.00
2022-10-20T00:20:15.987Z,97416.00
2022-10-20T00:25:16.931Z,97404.00
2022-10-20T00:30:19.522Z,97410.00
2022-10-20T00:35:22.293Z,97411.00
2022-10-20T00:40:24.055Z,97397.00
2022-10-20T00:45:25.651Z,97399.00
2022-10-20T00:50:40.963Z,97392.00
2022-10-20T00:55:46.024Z,97376.00
2022-10-20T01:00:52.670Z,97360.00
2022-10-20T01:05:53.416Z,97365.00
2022-10-20T01:12:36.579Z,97357.00
2022-10-20T01:18:12.562Z,97352.00
2022-10-20T01:26:59.082Z,97349.00
2022-10-20T01:33:40.970Z,97352.00
2022-10-20T01:38:48.208Z,97357.00
2022-10-20T01:43:50.423Z,97348.00
2022-10-20T01:48:52.985Z,97338.00
2022-10-20T01:53:53.926Z,97323.00
2022-10-20T01:59:33.478Z,97312.00
2022-10-20T02:05:00.949Z,97306.00
2022-10-20T02:10:17.797Z,97282.00
2022-10-20T02:15:23.466Z,97282.00
2022-10-20T02:20:24.543Z,97300.00
2022-10-20T02:25:27.321Z,97302.00
2022-10-20T02:30:29.278Z,97277.00
2022-10-20T02:35:31.467Z,97297.00
2022-10-20T02:40:32.449Z,97283.00
2022-10-20T02:45:33.206Z,97262.00
2022-10-20T02:50:35.234Z,97286.00
2022-10-20T02:55:36.062Z,97274.00
2022-10-20T03:00:37.140Z,97272.00
2022-10-20T03:05:40.991Z,97269.00
2022-10-20T03:10:42.125Z,97272.00
2022-10-20T03:15:43.102Z,97264.00
2022-10-20T03:20:43.953Z,97254.00
2022-10-20T03:25:45.005Z,97252.00
2022-10-20T03:30:46.352Z,97252.00
2022-10-20T03:35:47.243Z,97247.00
2022-10-20T03:40:48.001Z,97251.00
2022-10-20T03:45:48.748Z,97244.00
2022-10-20T03:50:49.497Z,97245.00
2022-10-20T03:55:50.379Z,97244.00
2022-10-20T04:00:51.357Z,97247.00
2022-10-20T04:05:52.408Z,97239.00
2022-10-20T04:10:53.128Z,97231.00
2022-10-20T04:15:54.024Z,97227.00
2022-10-20T04:20:54.759Z,97219.00
2022-10-20T04:25:55.583Z,97219.00
2022-10-20T04:30:59.447Z,97199.00
2022-10-20T04:36:06.454Z,97195.00
2022-10-20T04:41:07.389Z,97179.00
2022-10-20T04:46:09.999Z,97179.00
2022-10-20T04:51:13.631Z,97165.00
2022-10-20T04:56:21.082Z,97162.00
2022-10-20T05:01:24.388Z,97134.00
2022-10-20T05:06:31.148Z,97173.00
2022-10-20T05:11:35.348Z,97166.00
2022-10-20T05:16:36.129Z,97150.00
2022-10-20T05:21:36.946Z,97138.00
2022-10-20T05:26:38.201Z,97135.00
2022-10-20T05:31:41.199Z,97148.00
2022-10-20T05:36:41.960Z,97139.00
2022-10-20T05:41:42.716Z,97139.00
2022-10-20T05:46:43.453Z,97139.00
2022-10-20T05:51:45.872Z,97124.00
2022-10-20T05:56:46.872Z,97117.00
2022-10-20T06:01:48.156Z,97127.00
2022-10-20T06:06:53.698Z,97148.00
2022-10-20T06:11:54.547Z,97146.00
2022-10-20T06:16:56.162Z,97165.00
2022-10-20T06:21:56.950Z,97167.00
2022-10-20T06:26:57.875Z,97156.00
2022-10-20T06:31:58.644Z,97142.00
2022-10-20T06:36:59.872Z,97152.00
2022-10-20T06:42:02.968Z,97178.00
2022-10-20T06:47:09.374Z,97164.00
2022-10-20T06:57:11.963Z,97180.00
2022-10-20T07:02:12.898Z,97170.00
2022-10-20T07:07:13.657Z,97158.00
2022-10-20T07:12:14.809Z,97169.00
2022-10-20T07:17:15.553Z,97169.00
2022-10-20T07:22:16.323Z,97147.00
2022-10-20T07:27:17.164Z,97165.00
2022-10-20T07:32:17.959Z,97155.00
2022-10-20T07:37:18.720Z,97165.00
2022-10-20T07:42:19.496Z,97163.00
2022-10-20T07:47:20.258Z,97155.00
2022-10-20T07:52:21.018Z,97149.00
2022-10-20T07:57:28.187Z,97154.00
2022-10-20T08:02:29.023Z,97141.00
2022-10-20T08:07:29.781Z,97157.00
2022-10-20T08:12:30.859Z,97147.00
2022-10-20T08:17:31.651Z,97145.00
2022-10-20T08:22:32.442Z,97145.00
2022-10-20T08:27:33.402Z,97146.00
2022-10-20T08:32:34.547Z,97141.00
2022-10-20T08:37:36.395Z,97136.00
2022-10-20T08:42:44.466Z,97137.00
2022-10-20T08:47:48.411Z,97137.00
2022-10-20T08:52:53.871Z,97155.00
2022-10-20T08:58:05.134Z,97143.00
2022-10-20T09:03:23.941Z,97147.00
2022-10-20T09:08:27.617Z,97144.00
2022-10-20T09:13:32.073Z,97135.00
2022-10-20T09:18:34.187Z,97126.00
2022-10-20T09:23:42.166Z,97128.00
2022-10-20T09:29:12.009Z,97133.00
2022-10-20T09:34:39.276Z,97136.00
2022-10-20T09:39:57.778Z,97142.00
2022-10-20T09:46:05.889Z,97141.00
2022-10-20T09:51:18.133Z,97135.00
2022-10-20T09:56:44.069Z,97143.00
2022-10-20T10:02:00.430Z,97147.00
2022-10-20T10:07:02.746Z,97141.00
2022-10-20T10:12:37.629Z,97136.00
2022-10-20T10:17:42.925Z,97128.00
2022-10-20T10:22:44.388Z,97115.00
2022-10-20T10:28:08.677Z,97097.00
2022-10-20T10:33:26.402Z,97104.00
2022-10-20T10:38:28.249Z,97116.00
2022-10-20T10:46:07.931Z,97096.00
2022-10-20T10:52:50.803Z,97062.00
2022-10-20T10:58:17.824Z,97057.00
2022-10-20T11:06:04.071Z,97074.00
2022-10-20T11:14:46.278Z,97072.00
2022-10-20T11:20:33.715Z,97115.00
2022-10-20T11:25:51.055Z,97130.00
2022-10-20T11:30:52.092Z,97118.00
2022-10-20T11:36:08.443Z,97112.00
2022-10-20T11:41:18.252Z,97099.00
2022-10-20T11:46:33.200Z,97101.00
2022-10-20T11:53:15.530Z,97095.00
2022-10-20T11:58:59.165Z,97081.00
2022-10-20T12:05:10.347Z,97082.00
2022-10-20T12:10:48.921Z,97085.00
2022-10-20T12:15:52.206Z,97097.00
2022-10-20T12:21:16.072Z,97081.00
2022-10-20T12:30:00.838Z,97066.00
2022-10-20T12:35:27.035Z,97045.00
2022-10-20T12:40:31.880Z,97039.00
2022-10-20T12:45:43.593Z,97026.00
2022-10-20T12:50:47.126Z,97014.00
2022-10-20T12:56:12.128Z,97020.00
2022-10-20T13:01:13.205Z,97014.00
2022-10-20T13:07:59.007Z,97006.00
2022-10-20T13:13:49.642Z,97031.00
2022-10-20T13:18:52.639Z,97034.00
2022-10-20T13:24:02.571Z,97025.00
2022-10-20T13:29:11.795Z,97014.00
2022-10-20T13:34:33.087Z,97017.00
2022-10-20T13:40:01.352Z,97012.00
2022-10-20T13:45:12.241Z,97014.00
2022-10-20T13:55:27.685Z,97024.00
2022-10-20T14:00:30.848Z,97023.00
2022-10-20T14:05:38.523Z,97029.00
2022-10-20T14:10:54.985Z,97028.00
2022-10-20T14:15:58.402Z,97040.00
2022-10-20T14:21:21.259Z,97024.00
2022-10-20T14:26:24.669Z,97026.00
2022-10-20T14:31:25.477Z,97022.00
2022-10-20T14:36:28.434Z,97002.00
2022-10-20T14:41:35.792Z,96996.00
2022-10-20T14:46:44.373Z,96982.00
2022-10-20T14:52:00.872Z,96954.00
2022-10-20T14:57:29.813Z,96991.00
2022-10-20T15:02:40.534Z,97004.00
2022-10-20T15:07:41.569Z,97019.00
2022-10-20T15:12:45.115Z,97013.00
2022-10-20T15:21:19.615Z,97012.00
2022-10-20T15:26:20.351Z,97000.00
2022-10-20T15:31:27.776Z,96977.00
2022-10-20T15:36:39.078Z,96985.00
2022-10-20T15:41:42.988Z,96994.00
2022-10-20T15:46:47.169Z,96981.00
2022-10-20T15:51:49.819Z,96970.00
2022-10-20T15:56:50.631Z,96968.00
2022-10-20T16:01:51.406Z,96964.00
2022-10-20T16:06:57.779Z,96953.00
2022-10-20T16:12:00.069Z,96948.00
2022-10-20T16:17:01.088Z,96944.00
2022-10-20T16:22:01.975Z,96942.00
2022-10-20T16:27:11.024Z,96940.00
2022-10-20T16:32:12.565Z,96931.00
2022-10-20T16:37:13.950Z,96932.00
2022-10-20T16:42:14.682Z,96935.00
2022-10-20T16:47:15.496Z,96945.00
2022-10-20T16:52:16.606Z,96960.00
2022-10-20T16:57:17.393Z,96944.00
2022-10-20T17:02:18.650Z,96942.00
2022-10-20T17:07:19.498Z,96932.00
2022-10-20T17:12:20.718Z,96938.00
2022-10-20T17:17:21.482Z,96921.00
2022-10-20T17:22:22.409Z,96900.00
2022-10-20T17:27:23.175Z,96904.00
2022-10-20T17:32:23.944Z,96907.00
2022-10-20T17:37:24.978Z,96913.00
2022-10-20T17:42:25.703Z,96915.00
2022-10-20T17:47:26.511Z,96890.00
2022-10-20T17:52:28.587Z,96872.00
2022-10-20T17:57:30.105Z,96900.00
2022-10-20T18:02:30.888Z,96917.00
2022-10-20T18:07:31.824Z,96922.00
2022-10-20T18:12:32.595Z,96924.00
2022-10-20T18:17:34.671Z,96935.00
2022-10-20T18:22:36.017Z,96917.00
2022-10-20T18:27:37.083Z,96909.00
2022-10-20T18:32:38.154Z,96902.00
2022-10-20T18:37:40.723Z,96907.00
2022-10-20T18:42:41.504Z,96906.00
2022-10-20T18:47:44.309Z,96923.00
2022-10-20T18:52:45.305Z,96901.00
2022-10-20T18:57:46.352Z,96899.00
2022-10-20T19:02:51.778Z,96883.00
2022-10-20T19:07:52.555Z,96878.00
2022-10-20T19:12:53.494Z,96877.00
2022-10-20T19:17:57.026Z,96881.00
2022-10-20T19:23:01.621Z,96870.00
2022-10-20T19:28:02.461Z,96861.00
2022-10-20T19:33:03.930Z,96844.00
2022-10-20T19:38:04.928Z,96837.00
2022-10-20T19:43:06.237Z,96833.00
2022-10-20T19:48:06.995Z,96829.00
2022-10-20T19:53:07.945Z,96825.00
2022-10-20T20:03:11.024Z,96810.00
2022-10-20T20:08:11.822Z,96794.00
2022-10-20T20:13:12.596Z,96810.00
2022-10-20T20:18:14.174Z,96834.00
2022-10-20T20:23:15.865Z,96834.00
2022-10-20T20:28:16.657Z,96821.00
2022-10-20T20:33:17.501Z,96808.00
2022-10-20T20:38:18.262Z,96813.00
2022-10-20T20:43:19.948Z,96804.00
2022-10-20T20:48:20.679Z,96819.00
2022-10-20T20:53:21.981Z,96806.00
2022-10-20T20:58:24.138Z,96815.00
2022-10-20T21:03:24.879Z,96805.00
2022-10-20T21:08:25.651Z,96810.00
2022-10-20T21:13:26.391Z,96797.00
2022-10-20T21:18:27.139Z,96791.00
2022-10-20T21:23:28.050Z,96791.00
2022-10-20T21:28:28.882Z,96779.00
2022-10-20T21:33:30.217Z,96781.00
2022-10-20T21:38:32.688Z,96779.00
2022-10-20T21:43:34.759Z,96783.00
2022-10-20T21:53:36.904Z,96783.00
2022-10-20T21:58:38.659Z,96764.00
2022-10-20T22:03:41.683Z,96772.00
2022-10-20T22:08:45.032Z,96786.00
2022-10-20T22:13:47.284Z,96793.00
2022-10-20T22:18:48.035Z,96787.00
2022-10-20T22:23:52.966Z,96792.00
2022-10-20T22:28:54.171Z,96802.00
2022-10-20T22:33:56.906Z,96824.00
2022-10-20T22:38:57.834Z,96812.00
2022-10-20T22:43:58.764Z,96807.00
2022-10-20T22:48:59.595Z,96829.00
2022-10-20T22:54:01.416Z,96831.00
2022-10-20T22:59:02.207Z,96831.00
2022-10-20T23:04:03.021Z,96832.00
2022-10-20T23:09:03.792Z,96834.00
2022-10-20T23:14:04.734Z,96838.00
2022-10-20T23:19:05.457Z,96838.00
2022-10-20T23:24:06.451Z,96834.00
2022-10-20T23:29:07.256Z,96806.00
2022-10-20T23:34:08.245Z,96722.00
2022-10-20T23:39:09.281Z,96722.00
2022-10-20T23:44:10.230Z,96725.00
2022-10-20T23:49:10.959Z,96700.00
2022-10-20T23:54:12.035Z,96691.00
2022-10-20T23:59:13.178Z,96703.00
